Time;durP1;ratioP1;P1;durP2;ratioP2;P2;SDS_P1;SDS_P2;PMS_P1;PMS_P2;Temp;Humidity;BMP_temperature;BMP_pressure;BME280_temperature;BME280_humidity;BME280_pressure;Samples;Min_cycle;Max_cycle;Signal;HPM_P1;HPM_P2
2023/09/12 00:00:42;;;;;;;10.60;7.40;;;;;;;24.57;73.22;99829.47;5048290;28;20656;-72
2023/09/12 00:03:08;;;;;;;8.60;6.63;;;;;;;24.58;73.25;99834.03;5033738;28;20235;-73
2023/09/12 00:05:33;;;;;;;7.50;6.03;;;;;;;24.58;72.90;99834.84;5047305;28;20426;-73
2023/09/12 00:07:58;;;;;;;10.37;6.80;;;;;;;24.56;73.09;99825.78;5051639;28;20282;-73
2023/09/12 00:10:24;;;;;;;9.87;6.53;;;;;;;24.56;73.14;99828.69;5048861;28;20235;-72
2023/09/12 00:12:50;;;;;;;9.90;6.47;;;;;;;24.58;73.29;99831.13;5046577;28;20870;-73
2023/09/12 00:15:15;;;;;;;11.33;6.60;;;;;;;24.58;72.91;99836.91;5046623;28;20453;-72
2023/09/12 00:17:41;;;;;;;8.50;6.10;;;;;;;24.56;73.09;99828.69;5029288;28;20168;-72
2023/09/12 00:20:08;;;;;;;8.50;6.30;;;;;;;24.56;73.39;99831.56;5064424;28;20175;-73
2023/09/12 00:22:33;;;;;;;8.20;6.40;;;;;;;24.57;73.74;99835.25;5046532;28;20203;-73
2023/09/12 00:24:58;;;;;;;10.17;7.53;;;;;;;24.56;72.95;99833.63;5028774;28;20441;-73
2023/09/12 00:27:24;;;;;;;8.90;6.67;;;;;;;24.56;73.45;99827.84;5047976;28;20202;-72
2023/09/12 00:29:49;;;;;;;10.33;7.20;;;;;;;24.56;73.15;99828.69;5051573;28;20213;-72
2023/09/12 00:32:15;;;;;;;10.47;5.87;;;;;;;24.56;73.06;99843.09;5050292;28;20635;-73
2023/09/12 00:34:40;;;;;;;9.07;7.10;;;;;;;24.56;72.88;99836.50;5051783;28;20187;-72
2023/09/12 00:37:06;;;;;;;8.43;6.47;;;;;;;24.55;72.76;99838.59;5030535;28;20168;-72
2023/09/12 00:39:31;;;;;;;9.00;7.27;;;;;;;24.55;73.08;99832.81;5032606;28;20183;-72
2023/09/12 00:41:56;;;;;;;10.80;7.57;;;;;;;24.55;73.28;99826.22;5049757;28;20515;-72
2023/09/12 00:44:22;;;;;;;10.27;6.83;;;;;;;24.55;72.88;99826.22;5050718;28;20187;-73
2023/09/12 00:46:48;;;;;;;11.33;6.33;;;;;;;24.55;72.79;99826.22;5047809;28;20260;-72
2023/09/12 00:49:13;;;;;;;8.90;7.30;;;;;;;24.55;72.74;99832.81;5048173;28;20245;-72
2023/09/12 00:51:39;;;;;;;7.87;6.30;;;;;;;24.55;72.95;99834.88;5049077;28;20156;-72
2023/09/12 00:54:04;;;;;;;7.97;5.97;;;;;;;24.54;73.19;99816.72;5031789;28;20206;-73
2023/09/12 00:56:29;;;;;;;8.10;6.70;;;;;;;24.55;73.18;99818.38;5031423;28;20221;-72
2023/09/12 00:58:55;;;;;;;10.87;6.73;;;;;;;24.54;72.51;99822.50;5062287;28;20183;-72
2023/09/12 01:01:20;;;;;;;9.03;6.73;;;;;;;24.54;73.07;99819.63;5072486;28;20190;-72
2023/09/12 01:03:46;;;;;;;11.87;7.27;;;;;;;24.54;73.05;99813.84;5037017;28;20191;-72
2023/09/12 01:06:11;;;;;;;9.10;6.73;;;;;;;24.54;73.38;99813.84;5058502;28;20191;-72
2023/09/12 01:08:40;;;;;;;12.73;7.30;;;;;;;24.54;72.94;99815.94;5031668;28;20191;-72
2023/09/12 01:11:05;;;;;;;8.37;6.70;;;;;;;24.53;73.31;99812.22;5062477;28;20244;-73
2023/09/12 01:13:31;;;;;;;8.73;6.90;;;;;;;24.54;72.96;99808.06;5051594;28;20437;-73
2023/09/12 01:15:56;;;;;;;10.10;7.50;;;;;;;24.53;73.15;99803.56;5045513;28;20210;-72
2023/09/12 01:18:22;;;;;;;9.50;7.20;;;;;;;24.54;72.66;99813.03;5062010;28;20188;-72
2023/09/12 01:21:05;;;;;;;13.07;7.43;;;;;;;24.53;73.01;99809.31;5027990;28;20183;-72
2023/09/12 01:23:47;;;;;;;9.47;7.20;;;;;;;24.53;72.80;99820.88;5045393;28;20195;-73
2023/09/12 01:26:29;;;;;;;10.13;6.90;;;;;;;24.54;72.88;99824.59;5060432;28;20772;-72
2023/09/12 01:28:55;;;;;;;11.47;7.37;;;;;;;24.52;72.73;99819.25;5066622;28;20453;-73
2023/09/12 01:31:20;;;;;;;9.03;7.00;;;;;;;24.52;72.73;99819.25;5048394;28;21081;-72
2023/09/12 01:33:46;;;;;;;9.00;7.30;;;;;;;24.53;72.84;99814.28;5050551;28;20494;-72
2023/09/12 01:36:11;;;;;;;7.80;6.87;;;;;;;24.52;72.77;99819.25;5053920;28;21045;-72
2023/09/12 01:38:37;;;;;;;8.53;6.90;;;;;;;24.52;72.36;99804.81;5012604;28;20198;-72
2023/09/12 01:41:02;;;;;;;10.23;6.87;;;;;;;24.51;72.89;99803.19;5031191;28;20195;-74
2023/09/12 01:43:27;;;;;;;9.57;7.27;;;;;;;24.51;72.95;99806.06;5049004;28;20868;-72
2023/09/12 01:45:54;;;;;;;8.27;6.67;;;;;;;24.51;72.88;99814.72;5050437;28;20753;-73
2023/09/12 01:48:26;;;;;;;11.63;8.10;;;;;;;24.52;72.86;99816.34;5028885;28;20196;-72
2023/09/12 01:50:52;;;;;;;11.77;7.30;;;;;;;24.52;72.79;99804.81;5030179;28;20519;-72
2023/09/12 01:53:17;;;;;;;9.30;7.50;;;;;;;24.52;72.67;99806.88;5081468;28;20823;-72
2023/09/12 01:55:44;;;;;;;9.67;8.00;;;;;;;24.52;72.66;99806.88;5073434;28;20178;-72
2023/09/12 01:58:10;;;;;;;9.17;7.77;;;;;;;24.51;72.34;99803.19;5068323;28;20174;-72
2023/09/12 02:00:35;;;;;;;8.47;6.80;;;;;;;24.51;72.61;99802.34;5048901;28;20448;-72
2023/09/12 02:03:01;;;;;;;9.80;7.20;;;;;;;24.51;72.72;99805.22;5049189;28;20205;-72
2023/09/12 02:05:26;;;;;;;10.07;7.00;;;;;;;24.50;72.92;99815.16;5065601;28;20186;-72
2023/09/12 02:07:52;;;;;;;7.47;6.50;;;;;;;24.51;72.37;99813.91;5032187;28;20520;-73
2023/09/12 02:10:17;;;;;;;8.70;7.50;;;;;;;24.50;72.18;99815.97;5026172;28;20241;-72
2023/09/12 02:12:43;;;;;;;9.27;7.37;;;;;;;24.50;72.21;99815.97;5070065;28;20187;-73
2023/09/12 02:15:09;;;;;;;8.10;6.80;;;;;;;24.49;72.42;99817.19;5063827;28;20171;-73
2023/09/12 02:17:34;;;;;;;8.40;7.03;;;;;;;24.49;72.32;99811.44;5048302;28;20179;-73
2023/09/12 02:19:59;;;;;;;9.50;6.77;;;;;;;24.49;72.15;99817.19;5064352;28;20164;-72
2023/09/12 02:22:25;;;;;;;11.10;7.37;;;;;;;24.51;72.27;99813.91;5067278;28;20198;-72
2023/09/12 02:24:50;;;;;;;11.27;7.53;;;;;;;24.50;72.13;99815.16;5028787;28;20191;-72
2023/09/12 02:27:16;;;;;;;8.53;6.80;;;;;;;24.49;72.22;99817.19;5053098;28;20207;-72
2023/09/12 02:29:42;;;;;;;10.20;7.60;;;;;;;24.49;72.30;99831.63;5064983;28;21417;-72
2023/09/12 02:32:07;;;;;;;11.30;7.60;;;;;;;24.49;72.37;99820.09;5064498;28;20179;-72
2023/09/12 02:34:33;;;;;;;12.90;8.10;;;;;;;24.48;72.23;99820.56;5047698;28;20218;-72
2023/09/12 02:36:58;;;;;;;10.40;7.73;;;;;;;24.48;71.94;99824.22;5041525;28;20538;-72
2023/09/12 02:39:24;;;;;;;11.50;7.40;;;;;;;24.49;72.17;99810.63;5031348;28;20179;-72
2023/09/12 02:41:49;;;;;;;10.77;6.93;;;;;;;24.48;72.14;99806.91;5066522;28;20182;-73
2023/09/12 02:44:15;;;;;;;11.30;7.67;;;;;;;24.47;72.11;99813.94;5048039;28;20206;-72
2023/09/12 02:46:40;;;;;;;9.20;6.93;;;;;;;24.48;71.65;99815.56;5059083;28;20587;-72
2023/09/12 02:49:06;;;;;;;10.10;7.43;;;;;;;24.47;72.03;99819.72;5062354;28;20989;-73
2023/09/12 02:51:31;;;;;;;12.10;7.63;;;;;;;24.48;71.74;99823.44;5044081;28;20194;-72
2023/09/12 02:53:57;;;;;;;9.07;6.80;;;;;;;24.47;71.78;99813.94;5054142;28;20273;-71
2023/09/12 02:56:22;;;;;;;10.40;7.57;;;;;;;24.47;71.95;99819.72;5065094;28;20179;-72
2023/09/12 02:58:48;;;;;;;11.33;7.10;;;;;;;24.48;71.88;99820.56;5067969;28;20170;-75
2023/09/12 03:01:17;;;;;;;9.80;7.30;;;;;;;24.47;71.89;99813.94;5063434;28;20780;-72
2023/09/12 03:03:44;;;;;;;9.40;7.60;;;;;;;24.46;71.98;99812.31;5066315;28;20198;-73
2023/09/12 03:06:09;;;;;;;7.87;7.07;;;;;;;24.46;72.50;99806.53;5056636;28;20966;-72
2023/09/12 03:08:34;;;;;;;9.47;7.03;;;;;;;24.47;71.77;99810.22;5068663;28;20473;-72
2023/09/12 03:11:02;;;;;;;8.37;6.93;;;;;;;24.46;72.02;99815.19;5050736;28;20227;-72
2023/09/12 03:13:28;;;;;;;8.70;7.47;;;;;;;24.46;71.60;99809.44;5050801;28;20179;-72
2023/09/12 03:15:53;;;;;;;8.83;7.47;;;;;;;24.47;71.66;99810.22;5048779;28;20437;-72
2023/09/12 03:18:19;;;;;;;10.13;6.87;;;;;;;24.46;71.70;99809.44;5031457;28;20183;-72
2023/09/12 03:20:44;;;;;;;9.47;7.30;;;;;;;24.45;71.66;99810.69;5032310;28;20191;-72
2023/09/12 03:23:09;;;;;;;11.03;7.43;;;;;;;24.46;71.53;99820.97;5050623;28;20214;-72
2023/09/12 03:25:38;;;;;;;9.43;7.00;;;;;;;24.45;71.42;99819.34;5029103;28;20562;-72
2023/09/12 03:28:04;;;;;;;9.90;7.43;;;;;;;24.45;71.64;99822.22;5047539;28;20203;-72
2023/09/12 03:30:30;;;;;;;9.60;7.03;;;;;;;24.45;71.46;99819.34;5034010;28;20516;-72
2023/09/12 03:32:55;;;;;;;10.20;7.90;;;;;;;24.43;71.74;99824.72;5069042;28;20451;-72
2023/09/12 03:35:20;;;;;;;11.43;7.30;;;;;;;24.43;71.89;99821.81;5071940;28;20191;-72
2023/09/12 03:37:46;;;;;;;9.93;7.47;;;;;;;24.43;72.09;99810.28;5067291;28;20184;-72
2023/09/12 03:40:12;;;;;;;10.50;7.00;;;;;;;24.43;72.02;99803.72;5051072;28;20187;-72
2023/09/12 03:42:37;;;;;;;9.70;7.10;;;;;;;24.43;71.54;99804.50;5080658;28;20179;-73
2023/09/12 03:45:03;;;;;;;9.43;7.17;;;;;;;24.44;71.09;99805.34;5050706;28;20233;-72
2023/09/12 03:47:28;;;;;;;7.43;6.23;;;;;;;24.43;71.22;99816.06;5052082;28;20207;-72
2023/09/12 03:49:54;;;;;;;8.73;6.80;;;;;;;24.42;71.43;99805.78;5050836;28;20182;-72
2023/09/12 03:52:19;;;;;;;13.00;8.60;;;;;;;24.42;71.39;99814.44;5060770;28;20191;-72
2023/09/12 03:54:45;;;;;;;9.67;7.10;;;;;;;24.42;71.40;99811.53;5050229;28;20202;-72
2023/09/12 03:57:10;;;;;;;10.47;7.87;;;;;;;24.43;71.28;99815.25;5068075;28;20152;-72
2023/09/12 03:59:36;;;;;;;9.00;7.33;;;;;;;24.42;71.24;99813.59;5066728;28;20186;-72
2023/09/12 04:02:04;;;;;;;9.13;6.87;;;;;;;24.41;71.75;99804.13;5048933;28;20191;-72
2023/09/12 04:04:29;;;;;;;11.40;7.83;;;;;;;24.42;71.57;99804.94;5047356;28;20182;-73
2023/09/12 04:06:55;;;;;;;10.73;7.53;;;;;;;24.42;71.44;99813.59;5049670;28;20456;-72
2023/09/12 04:09:21;;;;;;;9.07;7.17;;;;;;;24.42;71.25;99819.38;5065147;28;20203;-72
2023/09/12 04:11:46;;;;;;;9.80;7.40;;;;;;;24.41;71.17;99812.81;5049572;28;20227;-71
2023/09/12 04:14:13;;;;;;;9.00;6.70;;;;;;;24.41;71.28;99812.81;5052607;28;20937;-72
2023/09/12 04:16:38;;;;;;;9.73;6.67;;;;;;;24.40;70.90;99814.06;5048870;28;20171;-72
2023/09/12 04:19:04;;;;;;;9.10;7.20;;;;;;;24.40;71.21;99810.34;5049747;28;20908;-72
2023/09/12 04:21:29;;;;;;;8.70;6.77;;;;;;;24.40;71.37;99811.16;5065969;28;20271;-72
2023/09/12 04:23:55;;;;;;;7.50;6.13;;;;;;;24.40;71.49;99816.94;5066851;28;20179;-72
2023/09/12 04:26:20;;;;;;;9.83;6.50;;;;;;;24.41;71.27;99817.75;5050549;28;20194;-72
2023/09/12 04:28:50;;;;;;;7.63;6.23;;;;;;;24.40;71.31;99816.13;5066365;28;20178;-72
2023/09/12 04:31:15;;;;;;;13.40;7.67;;;;;;;24.39;71.26;99815.28;5052171;28;20307;-71
2023/09/12 04:33:40;;;;;;;11.73;7.60;;;;;;;24.39;71.17;99826.81;5046725;28;21119;-72
2023/09/12 04:36:06;;;;;;;9.10;7.10;;;;;;;24.39;71.46;99826.03;5052860;28;20186;-73
2023/09/12 04:38:32;;;;;;;8.50;6.80;;;;;;;24.38;71.15;99824.41;5047310;28;20176;-72
2023/09/12 04:41:04;;;;;;;7.53;6.73;;;;;;;24.38;71.14;99824.41;5062461;28;20248;-72
2023/09/12 04:43:30;;;;;;;8.30;6.50;;;;;;;24.38;71.23;99822.31;5049595;28;21179;-73
2023/09/12 04:45:55;;;;;;;9.30;6.40;;;;;;;24.37;71.40;99832.22;5067964;28;20448;-71
2023/09/12 04:48:21;;;;;;;10.43;7.20;;;;;;;24.37;71.05;99832.22;5032351;28;20240;-72
2023/09/12 04:50:46;;;;;;;13.23;7.03;;;;;;;24.38;71.01;99827.28;5082813;28;20228;-72
2023/09/12 04:53:12;;;;;;;12.17;7.13;;;;;;;24.37;71.32;99838.00;5031174;28;20194;-72
2023/09/12 04:55:38;;;;;;;9.77;7.10;;;;;;;24.37;71.09;99838.00;5049007;28;20182;-73
2023/09/12 04:58:04;;;;;;;9.20;7.10;;;;;;;24.36;71.32;99845.03;5047871;28;20182;-73
2023/09/12 05:00:29;;;;;;;7.00;6.30;;;;;;;24.37;70.75;99842.94;5048198;28;20437;-72
2023/09/12 05:02:55;;;;;;;11.07;7.03;;;;;;;24.36;71.26;99845.03;5049118;28;20273;-73
2023/09/12 05:05:20;;;;;;;8.40;7.00;;;;;;;24.36;70.88;99847.91;5033305;28;20206;-72
2023/09/12 05:07:46;;;;;;;9.53;6.73;;;;;;;24.36;70.58;99845.03;5064886;28;20538;-73
2023/09/12 05:10:12;;;;;;;9.80;6.70;;;;;;;24.36;71.05;99847.91;5046386;28;20296;-72
2023/09/12 05:12:37;;;;;;;8.47;7.33;;;;;;;24.35;70.81;99846.28;5049135;28;20189;-72
2023/09/12 05:15:03;;;;;;;10.60;7.47;;;;;;;24.37;70.69;99852.44;5065284;28;20190;-72
2023/09/12 05:17:28;;;;;;;7.17;6.17;;;;;;;24.35;70.53;99849.16;5028807;28;20191;-72
2023/09/12 05:19:54;;;;;;;8.10;6.60;;;;;;;24.35;70.87;99851.22;5051204;28;20670;-72
2023/09/12 05:22:20;;;;;;;11.47;6.60;;;;;;;24.35;70.79;99846.28;5049097;28;20179;-72
2023/09/12 05:24:45;;;;;;;8.83;7.57;;;;;;;24.35;70.74;99842.56;5045338;28;20184;-72
2023/09/12 05:27:11;;;;;;;10.30;7.10;;;;;;;24.35;70.56;99836.78;5041788;28;20211;-72
2023/09/12 05:29:36;;;;;;;10.23;8.03;;;;;;;24.35;70.62;99837.63;5063676;28;20186;-72
2023/09/12 05:32:02;;;;;;;9.30;7.00;;;;;;;24.35;70.78;99843.41;5048933;28;20183;-73
2023/09/12 05:34:28;;;;;;;9.37;7.67;;;;;;;24.34;70.74;99841.72;5050855;28;20182;-72
2023/09/12 05:36:53;;;;;;;10.60;8.10;;;;;;;24.34;70.58;99841.72;5044782;28;20171;-72
2023/09/12 05:39:18;;;;;;;8.13;6.73;;;;;;;24.35;70.42;99837.63;5049671;28;20540;-72
2023/09/12 05:41:44;;;;;;;10.97;7.73;;;;;;;24.34;70.37;99835.97;5054730;28;20681;-73
2023/09/12 05:44:12;;;;;;;9.20;6.43;;;;;;;24.34;70.65;99838.84;5042096;28;20213;-72
2023/09/12 05:46:37;;;;;;;9.97;7.00;;;;;;;24.35;70.59;99842.56;5046569;28;20260;-72
2023/09/12 05:49:03;;;;;;;9.90;6.93;;;;;;;24.33;70.40;99845.88;5055570;28;20841;-72
2023/09/12 05:51:29;;;;;;;7.73;6.80;;;;;;;24.34;70.50;99853.28;5041968;28;20642;-72
2023/09/12 05:53:54;;;;;;;9.77;7.10;;;;;;;24.35;70.62;99857.00;5036113;28;20589;-73
2023/09/12 05:56:20;;;;;;;11.77;7.53;;;;;;;24.33;70.65;99857.41;5064204;28;20187;-73
2023/09/12 05:58:46;;;;;;;8.57;7.00;;;;;;;24.33;70.28;99868.97;5036373;28;20186;-72
2023/09/12 06:01:11;;;;;;;8.00;6.90;;;;;;;24.33;70.71;99882.59;5057038;28;20187;-73
2023/09/12 06:03:37;;;;;;;11.87;6.90;;;;;;;24.32;70.51;99867.31;5055467;28;20518;-72
2023/09/12 06:06:02;;;;;;;9.07;6.93;;;;;;;24.33;70.79;99871.03;5029147;28;20203;-72
2023/09/12 06:08:28;;;;;;;7.67;6.87;;;;;;;24.32;70.81;99873.09;5062335;28;20728;-72
2023/09/12 06:10:54;;;;;;;9.77;7.90;;;;;;;24.32;70.54;99880.91;5056943;28;20235;-74
2023/09/12 06:13:20;;;;;;;10.97;7.87;;;;;;;24.32;70.59;99875.16;5029559;28;20183;-72
2023/09/12 06:15:46;;;;;;;8.90;7.30;;;;;;;24.31;70.71;99874.34;5029785;28;20503;-72
2023/09/12 06:18:11;;;;;;;8.27;6.90;;;;;;;24.32;70.75;99883.81;5027628;28;20183;-72
2023/09/12 06:20:37;;;;;;;8.20;7.27;;;;;;;24.32;70.38;99890.41;5030237;28;20187;-72
2023/09/12 06:23:03;;;;;;;9.03;7.07;;;;;;;24.31;71.15;99876.41;5041933;28;20225;-73
2023/09/12 06:25:29;;;;;;;9.87;7.77;;;;;;;24.31;70.79;99880.13;5041570;28;20199;-72
2023/09/12 06:27:54;;;;;;;9.37;7.40;;;;;;;24.31;70.77;99880.13;5056535;28;20449;-72
2023/09/12 06:30:20;;;;;;;8.90;7.23;;;;;;;24.32;70.61;99875.16;5061768;28;20418;-73
2023/09/12 06:32:45;;;;;;;9.80;7.30;;;;;;;24.31;70.75;99870.63;5064871;28;20554;-72
2023/09/12 06:35:11;;;;;;;11.50;7.60;;;;;;;24.31;70.41;99871.47;5060725;28;20674;-74
2023/09/12 06:37:39;;;;;;;10.57;7.60;;;;;;;24.27;70.38;99867.81;5028381;28;20558;-74
2023/09/12 06:40:07;;;;;;;9.70;7.20;;;;;;;24.26;70.94;99868.22;5046975;28;20241;-75
2023/09/12 06:42:32;;;;;;;11.27;8.10;;;;;;;24.32;71.15;99855.78;5055130;28;21211;-76
2023/09/12 06:44:58;;;;;;;19.87;11.47;;;;;;;24.54;72.31;99857.13;5049457;28;20438;-75
2023/09/12 06:47:23;;;;;;;19.50;11.23;;;;;;;24.70;71.97;99865.22;5032342;28;20229;-73
2023/09/12 06:49:49;;;;;;;15.87;11.93;;;;;;;24.69;72.54;99867.28;5053743;28;20190;-74
2023/09/12 06:52:14;;;;;;;26.47;15.10;;;;;;;24.84;73.30;99874.47;5066922;28;20190;-73
2023/09/12 06:54:39;;;;;;;21.80;14.33;;;;;;;24.66;72.60;99858.66;5046642;28;20641;-74
2023/09/12 06:57:05;;;;;;;20.00;12.57;;;;;;;24.58;74.76;99872.38;5051212;28;20182;-73
2023/09/12 06:59:30;;;;;;;16.73;11.50;;;;;;;24.57;74.29;99867.00;5064610;28;20202;-74
2023/09/12 07:01:56;;;;;;;15.27;11.60;;;;;;;24.54;74.65;99865.78;5049419;28;20192;-73
2023/09/12 07:04:21;;;;;;;19.00;12.60;;;;;;;24.74;75.96;99868.88;5065136;28;20633;-73
2023/09/12 07:06:47;;;;;;;18.63;13.30;;;;;;;24.77;75.00;99882.44;5050691;28;20202;-75
2023/09/12 07:09:14;;;;;;;22.90;12.77;;;;;;;24.71;75.71;99872.63;5033161;28;20690;-73
2023/09/12 07:11:41;;;;;;;17.30;12.30;;;;;;;24.79;75.51;99879.94;5068994;28;20234;-75
2023/09/12 07:14:06;;;;;;;15.90;12.37;;;;;;;24.80;76.03;99882.41;5076637;28;20494;-72
2023/09/12 07:16:32;;;;;;;24.50;11.50;;;;;;;24.77;75.85;99876.66;5089179;28;20408;-74
2023/09/12 07:18:58;;;;;;;14.87;11.17;;;;;;;24.77;76.39;99876.66;5067840;28;20252;-74
2023/09/12 07:21:23;;;;;;;17.17;11.13;;;;;;;24.77;75.77;99877.47;5068048;28;20519;-73
2023/09/12 07:23:48;;;;;;;16.20;9.97;;;;;;;24.77;76.47;99877.47;5063753;28;20186;-73
2023/09/12 07:26:14;;;;;;;14.37;9.50;;;;;;;24.76;76.33;99884.50;5067552;28;20183;-73
2023/09/12 07:28:40;;;;;;;20.80;10.03;;;;;;;24.74;76.55;99884.13;5052135;28;20298;-74
2023/09/12 07:31:05;;;;;;;13.10;10.17;;;;;;;24.75;77.06;99880.00;5071910;28;20770;-74
2023/09/12 07:33:30;;;;;;;14.93;10.00;;;;;;;24.75;76.64;99885.78;5089621;28;20186;-73
2023/09/12 07:35:56;;;;;;;16.60;10.10;;;;;;;24.78;77.02;99884.09;5070650;28;20187;-73
2023/09/12 07:38:21;;;;;;;19.53;10.37;;;;;;;24.80;76.84;99887.34;5047394;28;20186;-74
2023/09/12 07:40:47;;;;;;;16.00;9.60;;;;;;;24.79;76.66;99889.41;5054705;28;20736;-74
2023/09/12 07:43:12;;;;;;;16.90;9.90;;;;;;;24.80;77.29;99893.97;5068869;28;20163;-73
2023/09/12 07:45:38;;;;;;;14.70;9.30;;;;;;;24.77;76.08;99891.09;5055499;28;20661;-75
2023/09/12 07:48:09;;;;;;;12.03;9.50;;;;;;;24.71;75.78;99899.44;5047032;28;20188;-75
2023/09/12 07:50:38;;;;;;;13.77;9.93;;;;;;;24.64;73.89;99887.16;5029350;28;20190;-75
2023/09/12 07:53:04;;;;;;;14.10;10.00;;;;;;;24.59;73.90;99891.31;5043836;28;20458;-75
2023/09/12 07:55:34;;;;;;;14.47;9.13;;;;;;;24.58;73.50;99891.75;5061991;28;20954;-75
2023/09/12 07:57:59;;;;;;;16.73;10.60;;;;;;;24.55;73.52;99898.38;5048327;28;20588;-74
2023/09/12 08:00:25;;;;;;;19.50;10.87;;;;;;;24.53;73.19;99895.91;5039302;28;20438;-75
2023/09/12 08:02:50;;;;;;;20.47;10.53;;;;;;;24.51;73.14;99909.97;5045413;28;20233;-75
2023/09/12 08:05:16;;;;;;;14.33;10.40;;;;;;;24.51;72.45;99909.97;5032547;28;20181;-75
2023/09/12 08:07:41;;;;;;;24.00;10.77;;;;;;;24.50;72.31;99914.13;5042693;28;20272;-77
2023/09/12 08:10:07;;;;;;;16.97;10.90;;;;;;;24.49;72.76;99921.13;5039759;28;20211;-75
2023/09/12 08:12:33;;;;;;;16.10;10.10;;;;;;;24.48;72.59;99916.59;5047540;28;20278;-75
2023/09/12 08:14:59;;;;;;;17.80;10.90;;;;;;;24.49;72.18;99924.00;5031788;28;20244;-76
2023/09/12 08:17:25;;;;;;;18.23;10.83;;;;;;;24.49;72.76;99921.13;5062886;28;20190;-76
2023/09/12 08:19:51;;;;;;;16.50;10.90;;;;;;;24.50;72.35;99919.88;5085269;28;20497;-73
2023/09/12 08:22:16;;;;;;;15.83;9.73;;;;;;;24.49;72.10;99921.13;5032937;28;20426;-75
2023/09/12 08:24:42;;;;;;;16.80;11.23;;;;;;;24.47;72.29;99920.75;5058304;28;20191;-75
2023/09/12 08:27:08;;;;;;;17.67;10.40;;;;;;;24.49;71.79;99918.22;5060047;28;20294;-75
2023/09/12 08:29:34;;;;;;;14.13;11.00;;;;;;;24.47;72.25;99914.97;5045515;28;20285;-73
2023/09/12 08:32:00;;;;;;;13.70;10.27;;;;;;;24.48;72.24;99913.72;5029815;28;20764;-74
2023/09/12 08:34:25;;;;;;;17.83;10.87;;;;;;;24.48;72.02;99910.81;5029173;28;20167;-74
2023/09/12 08:36:51;;;;;;;19.23;11.20;;;;;;;24.47;72.26;99906.31;5040849;28;20423;-73
2023/09/12 08:39:23;;;;;;;15.83;10.70;;;;;;;24.47;71.76;99903.41;5057488;28;20217;-74
2023/09/12 08:41:49;;;;;;;17.80;10.87;;;;;;;24.49;72.39;99898.03;5046614;28;20187;-74
2023/09/12 08:44:15;;;;;;;17.07;12.13;;;;;;;24.47;72.52;99891.88;5062043;28;20479;-74
2023/09/12 08:46:41;;;;;;;16.70;11.17;;;;;;;24.48;72.75;99902.16;5045549;28;20434;-74
2023/09/12 08:49:07;;;;;;;19.10;10.90;;;;;;;24.49;72.08;99898.03;5037856;28;20218;-75
2023/09/12 08:51:32;;;;;;;17.97;11.03;;;;;;;24.48;72.03;99890.63;5032513;28;20432;-74
2023/09/12 08:53:58;;;;;;;18.10;11.30;;;;;;;24.49;72.21;99895.13;5061885;28;20194;-77
2023/09/12 08:56:24;;;;;;;14.83;10.57;;;;;;;24.49;72.69;99895.13;5049593;28;20191;-77
2023/09/12 08:58:50;;;;;;;21.10;10.90;;;;;;;24.49;72.24;99898.03;5035385;28;20187;-75
2023/09/12 09:01:15;;;;;;;16.00;11.40;;;;;;;24.50;71.35;99899.69;5029553;28;20468;-78
2023/09/12 09:03:42;;;;;;;14.67;10.90;;;;;;;24.50;71.78;99905.47;5060004;28;20814;-75
2023/09/12 09:06:08;;;;;;;15.87;10.17;;;;;;;24.50;71.94;99899.69;5062458;28;20245;-74
2023/09/12 09:08:34;;;;;;;19.60;11.60;;;;;;;24.52;72.66;99899.22;5049168;28;20473;-74
2023/09/12 09:11:02;;;;;;;17.60;11.40;;;;;;;24.53;71.61;99901.69;5045289;28;20951;-73
2023/09/12 09:13:27;;;;;;;15.63;10.10;;;;;;;24.52;71.45;99905.00;5045938;28;20192;-75
2023/09/12 09:16:16;;;;;;;16.53;11.70;;;;;;;24.56;71.53;99906.63;5063233;28;20524;-75
2023/09/12 09:19:03;;;;;;;24.10;10.30;;;;;;;24.57;71.57;99908.25;5070010;28;20270;-72
2023/09/12 09:21:31;;;;;;;18.20;11.63;;;;;;;24.55;71.78;99898.38;5037522;28;20434;-74
2023/09/12 09:24:03;;;;;;;17.30;11.23;;;;;;;24.56;71.42;99906.63;5059237;28;20452;-74
2023/09/12 09:26:44;;;;;;;18.10;11.80;;;;;;;24.57;71.16;99902.47;5068617;28;20467;-73
2023/09/12 09:29:12;;;;;;;15.83;11.27;;;;;;;24.56;71.78;99900.00;5056877;28;20444;-74
2023/09/12 09:31:42;;;;;;;15.67;11.67;;;;;;;24.56;71.78;99908.66;5063253;28;20431;-73
2023/09/12 09:34:17;;;;;;;13.93;10.57;;;;;;;24.55;71.86;99899.22;5070290;28;20959;-74
2023/09/12 09:36:53;;;;;;;16.10;10.73;;;;;;;24.57;72.04;99907.41;5049353;28;20432;-73
2023/09/12 09:39:19;;;;;;;14.67;10.97;;;;;;;24.56;72.02;99915.28;5044645;28;20751;-73
2023/09/12 09:41:48;;;;;;;17.83;11.33;;;;;;;24.57;71.63;99910.28;5061693;28;20465;-74
2023/09/12 09:44:14;;;;;;;15.77;11.00;;;;;;;24.57;71.41;99902.47;5032039;28;20475;-73
2023/09/12 09:46:39;;;;;;;16.17;11.30;;;;;;;24.57;71.41;99908.25;5047240;28;20421;-73
2023/09/12 09:49:06;;;;;;;13.60;9.70;;;;;;;24.57;72.02;99898.75;5047553;28;20206;-73
2023/09/12 09:51:32;;;;;;;16.27;11.23;;;;;;;24.55;72.04;99899.22;5057823;28;20194;-75
2023/09/12 09:53:58;;;;;;;14.53;10.60;;;;;;;24.55;71.96;99893.44;5062065;28;20436;-73
2023/09/12 09:56:25;;;;;;;16.63;11.53;;;;;;;24.57;71.62;99890.09;5044525;28;20176;-73
2023/09/12 09:58:52;;;;;;;18.17;11.60;;;;;;;24.56;71.76;99880.63;5033950;28;20558;-72
2023/09/12 10:01:19;;;;;;;14.93;10.93;;;;;;;24.56;71.71;99874.84;5064453;28;20409;-73
2023/09/12 10:03:49;;;;;;;12.57;9.43;;;;;;;24.55;72.33;99873.22;5064420;28;20448;-73
2023/09/12 10:06:16;;;;;;;16.40;9.97;;;;;;;24.54;71.74;99868.69;5062544;28;20484;-73
2023/09/12 10:08:50;;;;;;;14.03;10.00;;;;;;;24.58;72.16;99880.22;5049194;28;20544;-72
2023/09/12 10:11:16;;;;;;;18.03;11.73;;;;;;;24.56;71.84;99874.84;5031185;28;20474;-73
2023/09/12 10:13:49;;;;;;;16.50;11.43;;;;;;;24.56;71.81;99874.84;5057375;28;20440;-73
2023/09/12 10:16:14;;;;;;;22.73;11.00;;;;;;;24.56;71.88;99866.19;5038513;28;20186;-72
2023/09/12 10:18:45;;;;;;;14.93;10.30;;;;;;;24.57;72.03;99879.38;5034588;28;20891;-73
2023/09/12 10:21:11;;;;;;;17.10;10.60;;;;;;;24.56;72.49;99868.25;5068733;28;20198;-73
2023/09/12 10:23:43;;;;;;;17.90;10.33;;;;;;;24.57;72.12;99867.81;5034794;28;20820;-73
2023/09/12 10:26:12;;;;;;;17.70;10.20;;;;;;;24.57;72.64;99861.22;5044903;28;21074;-73
2023/09/12 10:28:40;;;;;;;13.90;10.57;;;;;;;24.56;72.49;99859.59;5045668;28;20500;-73
2023/09/12 10:31:05;;;;;;;17.70;11.67;;;;;;;24.57;72.62;99858.34;5031445;28;20461;-73
2023/09/12 10:33:31;;;;;;;16.40;10.50;;;;;;;24.58;72.16;99860.84;5047144;28;20425;-73
2023/09/12 10:35:58;;;;;;;13.47;10.30;;;;;;;24.58;72.45;99860.00;5046909;28;20192;-73
2023/09/12 10:38:23;;;;;;;17.50;10.70;;;;;;;24.56;72.33;99848.88;5050177;28;20218;-73
2023/09/12 10:40:49;;;;;;;15.83;10.17;;;;;;;24.55;72.44;99855.91;5033673;28;20452;-73
2023/09/12 10:43:14;;;;;;;17.17;10.93;;;;;;;24.56;72.23;99854.66;5050785;28;20178;-72
2023/09/12 10:45:40;;;;;;;17.53;10.73;;;;;;;24.55;72.22;99850.13;5051376;28;20191;-73
2023/09/12 10:48:06;;;;;;;20.20;11.30;;;;;;;24.55;72.66;99855.06;5035414;28;20214;-73
2023/09/12 10:50:31;;;;;;;14.83;11.60;;;;;;;24.55;72.34;99852.19;5045572;28;20186;-72
2023/09/12 10:53:09;;;;;;;14.90;10.27;;;;;;;24.56;72.55;99854.66;5030133;28;20187;-72
2023/09/12 10:55:34;;;;;;;20.10;10.43;;;;;;;24.56;72.59;99848.06;5057725;28;20187;-73
2023/09/12 10:58:02;;;;;;;14.30;9.83;;;;;;;24.56;72.19;99848.06;5038513;28;20975;-73
2023/09/12 11:00:27;;;;;;;16.37;10.90;;;;;;;24.58;72.88;99852.16;5057059;28;20186;-74
2023/09/12 11:02:53;;;;;;;14.10;10.87;;;;;;;24.57;72.62;99843.91;5041383;28;20475;-73
2023/09/12 11:05:27;;;;;;;17.33;10.00;;;;;;;24.57;72.31;99835.25;5053822;28;20529;-75
2023/09/12 11:07:59;;;;;;;13.53;10.33;;;;;;;24.59;72.28;99827.81;5062265;28;20689;-73
2023/09/12 11:10:25;;;;;;;12.33;9.53;;;;;;;24.60;72.27;99841.03;5053139;28;20495;-73
2023/09/12 11:13:00;;;;;;;15.93;11.63;;;;;;;24.59;72.16;99842.25;5060729;28;20452;-73
2023/09/12 11:15:26;;;;;;;14.77;9.90;;;;;;;24.58;72.84;99834.84;5030098;28;20190;-73
2023/09/12 11:18:04;;;;;;;13.27;9.63;;;;;;;24.59;72.70;99830.72;5065167;28;21332;-72
2023/09/12 11:20:53;;;;;;;13.90;9.87;;;;;;;24.58;72.41;99826.19;5039832;28;20426;-74
2023/09/12 11:23:18;;;;;;;11.47;9.20;;;;;;;24.59;71.99;99824.13;5056552;28;20440;-73